sensor_id;sensor_type;location;lat;lon;timestamp;temperature;humidity
54190;DHT22;40340;53.208;6.582;2022-09-25T00:01:39;11.00;99.90
54190;DHT22;40340;53.208;6.582;2022-09-25T00:04:05;11.00;99.90
54190;DHT22;40340;53.208;6.582;2022-09-25T00:06:30;11.00;99.90
54190;DHT22;40340;53.208;6.582;2022-09-25T00:08:59;11.00;99.90
54190;DHT22;40340;53.208;6.582;2022-09-25T00:11:29;11.00;99.90
54190;DHT22;40340;53.208;6.582;2022-09-25T00:13:56;11.00;99.90
54190;DHT22;40340;53.208;6.582;2022-09-25T00:16:25;11.00;99.90
54190;DHT22;40340;53.208;6.582;2022-09-25T00:18:51;10.90;99.90
54190;DHT22;40340;53.208;6.582;2022-09-25T00:21:35;10.90;99.90
54190;DHT22;40340;53.208;6.582;2022-09-25T00:24:04;10.80;99.90
54190;DHT22;40340;53.208;6.582;2022-09-25T00:26:32;10.90;99.90
54190;DHT22;40340;53.208;6.582;2022-09-25T00:28:59;10.90;99.90
54190;DHT22;40340;53.208;6.582;2022-09-25T00:31:26;10.90;99.90
54190;DHT22;40340;53.208;6.582;2022-09-25T00:33:56;10.90;99.90
54190;DHT22;40340;53.208;6.582;2022-09-25T00:36:22;10.80;99.90
54190;DHT22;40340;53.208;6.582;2022-09-25T00:38:48;10.80;99.90
54190;DHT22;40340;53.208;6.582;2022-09-25T00:41:16;10.80;99.90
54190;DHT22;40340;53.208;6.582;2022-09-25T00:43:48;10.80;99.90
54190;DHT22;40340;53.208;6.582;2022-09-25T00:46:33;10.70;99.90
54190;DHT22;40340;53.208;6.582;2022-09-25T00:51:49;10.70;99.90
54190;DHT22;40340;53.208;6.582;2022-09-25T00:54:23;10.70;99.90
54190;DHT22;40340;53.208;6.582;2022-09-25T00:56:51;10.70;99.90
54190;DHT22;40340;53.208;6.582;2022-09-25T00:59:27;10.70;99.90
54190;DHT22;40340;53.208;6.582;2022-09-25T01:01:53;10.70;99.90
54190;DHT22;40340;53.208;6.582;2022-09-25T01:04:19;10.70;99.90
54190;DHT22;40340;53.208;6.582;2022-09-25T01:06:47;10.70;99.90
54190;DHT22;40340;53.208;6.582;2022-09-25T01:09:14;10.60;99.90
54190;DHT22;40340;53.208;6.582;2022-09-25T01:11:40;10.70;99.90
54190;DHT22;40340;53.208;6.582;2022-09-25T01:14:06;10.60;99.90
54190;DHT22;40340;53.208;6.582;2022-09-25T01:16:55;10.60;99.90
54190;DHT22;40340;53.208;6.582;2022-09-25T01:19:54;10.60;99.90
54190;DHT22;40340;53.208;6.582;2022-09-25T01:31:10;10.50;99.90
54190;DHT22;40340;53.208;6.582;2022-09-25T01:33:44;10.50;99.90
54190;DHT22;40340;53.208;6.582;2022-09-25T01:36:24;10.50;99.90
54190;DHT22;40340;53.208;6.582;2022-09-25T01:39:01;10.40;99.90
54190;DHT22;40340;53.208;6.582;2022-09-25T01:41:36;10.40;99.90
54190;DHT22;40340;53.208;6.582;2022-09-25T01:44:22;10.50;99.90
54190;DHT22;40340;53.208;6.582;2022-09-25T01:46:51;10.40;99.90
54190;DHT22;40340;53.208;6.582;2022-09-25T01:49:38;10.50;99.90
54190;DHT22;40340;53.208;6.582;2022-09-25T01:52:10;10.40;99.90
54190;DHT22;40340;53.208;6.582;2022-09-25T01:54:42;10.40;99.90
54190;DHT22;40340;53.208;6.582;2022-09-25T02:00:08;10.30;99.90
54190;DHT22;40340;53.208;6.582;2022-09-25T02:02:43;10.30;99.90
54190;DHT22;40340;53.208;6.582;2022-09-25T02:05:40;10.30;99.90
54190;DHT22;40340;53.208;6.582;2022-09-25T02:08:11;10.30;99.90
54190;DHT22;40340;53.208;6.582;2022-09-25T02:10:44;10.30;99.90
54190;DHT22;40340;53.208;6.582;2022-09-25T02:13:15;10.20;99.90
54190;DHT22;40340;53.208;6.582;2022-09-25T02:16:01;10.30;99.90
54190;DHT22;40340;53.208;6.582;2022-09-25T02:18:30;10.20;99.90
54190;DHT22;40340;53.208;6.582;2022-09-25T02:26:47;10.10;99.90
54190;DHT22;40340;53.208;6.582;2022-09-25T02:29:15;10.10;99.90
54190;DHT22;40340;53.208;6.582;2022-09-25T02:31:52;10.10;99.90
54190;DHT22;40340;53.208;6.582;2022-09-25T02:34:18;10.10;99.90
54190;DHT22;40340;53.208;6.582;2022-09-25T02:36:44;10.20;99.90
54190;DHT22;40340;53.208;6.582;2022-09-25T02:39:12;10.20;99.90
54190;DHT22;40340;53.208;6.582;2022-09-25T02:47:11;10.20;99.90
54190;DHT22;40340;53.208;6.582;2022-09-25T02:52:45;10.20;99.90
54190;DHT22;40340;53.208;6.582;2022-09-25T02:55:47;10.30;99.90
54190;DHT22;40340;53.208;6.582;2022-09-25T02:58:25;10.20;99.90
54190;DHT22;40340;53.208;6.582;2022-09-25T03:00:52;10.20;99.90
54190;DHT22;40340;53.208;6.582;2022-09-25T03:03:21;10.30;99.90
54190;DHT22;40340;53.208;6.582;2022-09-25T03:05:50;10.30;99.90
54190;DHT22;40340;53.208;6.582;2022-09-25T03:08:17;10.30;99.90
54190;DHT22;40340;53.208;6.582;2022-09-25T03:11:07;10.30;99.90
54190;DHT22;40340;53.208;6.582;2022-09-25T03:13:33;10.30;99.90
54190;DHT22;40340;53.208;6.582;2022-09-25T03:16:07;10.30;99.90
54190;DHT22;40340;53.208;6.582;2022-09-25T03:18:34;10.20;99.90
54190;DHT22;40340;53.208;6.582;2022-09-25T03:21:01;10.20;99.90
54190;DHT22;40340;53.208;6.582;2022-09-25T03:23:28;10.20;99.90
54190;DHT22;40340;53.208;6.582;2022-09-25T03:25:54;10.20;99.90
54190;DHT22;40340;53.208;6.582;2022-09-25T03:28:21;10.20;99.90
54190;DHT22;40340;53.208;6.582;2022-09-25T03:31:07;10.20;99.90
54190;DHT22;40340;53.208;6.582;2022-09-25T03:33:39;10.10;99.90
54190;DHT22;40340;53.208;6.582;2022-09-25T03:36:17;10.10;99.90
54190;DHT22;40340;53.208;6.582;2022-09-25T03:38:43;10.20;99.90
54190;DHT22;40340;53.208;6.582;2022-09-25T03:41:11;10.10;99.90
54190;DHT22;40340;53.208;6.582;2022-09-25T03:43:40;10.10;99.90
54190;DHT22;40340;53.208;6.582;2022-09-25T03:46:08;10.10;99.90
54190;DHT22;40340;53.208;6.582;2022-09-25T03:48:34;10.20;99.90
54190;DHT22;40340;53.208;6.582;2022-09-25T03:51:01;10.20;99.90
54190;DHT22;40340;53.208;6.582;2022-09-25T03:53:27;10.20;99.90
54190;DHT22;40340;53.208;6.582;2022-09-25T03:56:01;10.10;99.90
54190;DHT22;40340;53.208;6.582;2022-09-25T03:58:28;10.10;99.90
54190;DHT22;40340;53.208;6.582;2022-09-25T04:00:54;10.10;99.90
54190;DHT22;40340;53.208;6.582;2022-09-25T04:03:27;10.10;99.90
54190;DHT22;40340;53.208;6.582;2022-09-25T04:05:57;10.10;99.90
54190;DHT22;40340;53.208;6.582;2022-09-25T04:08:24;10.10;99.90
54190;DHT22;40340;53.208;6.582;2022-09-25T04:10:54;10.10;99.90
54190;DHT22;40340;53.208;6.582;2022-09-25T04:13:30;10.10;99.90
54190;DHT22;40340;53.208;6.582;2022-09-25T04:15:57;10.00;99.90
54190;DHT22;40340;53.208;6.582;2022-09-25T04:18:24;10.00;99.90
54190;DHT22;40340;53.208;6.582;2022-09-25T04:20:50;10.00;99.90
54190;DHT22;40340;53.208;6.582;2022-09-25T04:23:16;10.00;99.90
54190;DHT22;40340;53.208;6.582;2022-09-25T04:25:42;9.90;99.90
54190;DHT22;40340;53.208;6.582;2022-09-25T04:28:07;9.90;99.90
54190;DHT22;40340;53.208;6.582;2022-09-25T04:30:34;10.00;99.90
54190;DHT22;40340;53.208;6.582;2022-09-25T04:33:01;10.00;99.90
54190;DHT22;40340;53.208;6.582;2022-09-25T04:35:45;9.90;99.90
54190;DHT22;40340;53.208;6.582;2022-09-25T04:38:10;9.90;99.90
54190;DHT22;40340;53.208;6.582;2022-09-25T04:40:37;9.90;99.90
54190;DHT22;40340;53.208;6.582;2022-09-25T04:43:04;9.80;99.90
54190;DHT22;40340;53.208;6.582;2022-09-25T04:45:33;9.80;99.90
54190;DHT22;40340;53.208;6.582;2022-09-25T04:48:00;9.80;99.90
54190;DHT22;40340;53.208;6.582;2022-09-25T04:50:28;9.70;99.90
54190;DHT22;40340;53.208;6.582;2022-09-25T04:52:56;9.70;99.90
54190;DHT22;40340;53.208;6.582;2022-09-25T04:55:22;9.60;99.90
54190;DHT22;40340;53.208;6.582;2022-09-25T04:57:52;9.60;99.90
54190;DHT22;40340;53.208;6.582;2022-09-25T05:00:20;9.60;99.90
54190;DHT22;40340;53.208;6.582;2022-09-25T05:02:46;9.60;99.90
54190;DHT22;40340;53.208;6.582;2022-09-25T05:05:12;9.60;99.90
54190;DHT22;40340;53.208;6.582;2022-09-25T05:07:38;9.60;99.90
54190;DHT22;40340;53.208;6.582;2022-09-25T05:10:07;9.60;99.90
54190;DHT22;40340;53.208;6.582;2022-09-25T05:12:34;9.60;99.90
54190;DHT22;40340;53.208;6.582;2022-09-25T05:15:00;9.60;99.90
54190;DHT22;40340;53.208;6.582;2022-09-25T05:17:26;9.60;99.90
54190;DHT22;40340;53.208;6.582;2022-09-25T05:20:01;9.60;99.90
54190;DHT22;40340;53.208;6.582;2022-09-25T05:22:28;9.60;99.90
54190;DHT22;40340;53.208;6.582;2022-09-25T05:24:53;9.70;99.90
54190;DHT22;40340;53.208;6.582;2022-09-25T05:27:19;9.70;99.90
54190;DHT22;40340;53.208;6.582;2022-09-25T05:29:46;9.70;99.90
54190;DHT22;40340;53.208;6.582;2022-09-25T05:32:11;9.70;99.90
54190;DHT22;40340;53.208;6.582;2022-09-25T05:34:37;9.70;99.90
54190;DHT22;40340;53.208;6.582;2022-09-25T05:37:02;9.70;99.90
54190;DHT22;40340;53.208;6.582;2022-09-25T05:39:28;9.70;99.90
54190;DHT22;40340;53.208;6.582;2022-09-25T05:41:54;9.70;99.90
54190;DHT22;40340;53.208;6.582;2022-09-25T05:44:20;9.70;99.90
54190;DHT22;40340;53.208;6.582;2022-09-25T05:46:46;9.70;99.90
54190;DHT22;40340;53.208;6.582;2022-09-25T05:49:11;9.70;99.90
54190;DHT22;40340;53.208;6.582;2022-09-25T05:51:37;9.70;99.90
54190;DHT22;40340;53.208;6.582;2022-09-25T05:54:03;9.70;99.90
54190;DHT22;40340;53.208;6.582;2022-09-25T05:56:28;9.70;99.90
54190;DHT22;40340;53.208;6.582;2022-09-25T05:58:54;9.70;99.90
54190;DHT22;40340;53.208;6.582;2022-09-25T06:01:23;9.70;99.90
54190;DHT22;40340;53.208;6.582;2022-09-25T06:03:48;9.70;99.90
54190;DHT22;40340;53.208;6.582;2022-09-25T06:06:14;9.70;99.90
54190;DHT22;40340;53.208;6.582;2022-09-25T06:08:39;9.70;99.90
54190;DHT22;40340;53.208;6.582;2022-09-25T06:11:05;9.70;99.90
54190;DHT22;40340;53.208;6.582;2022-09-25T06:13:32;9.70;99.90
54190;DHT22;40340;53.208;6.582;2022-09-25T06:15:59;9.80;99.90
54190;DHT22;40340;53.208;6.582;2022-09-25T06:18:25;9.80;99.90
54190;DHT22;40340;53.208;6.582;2022-09-25T06:20:57;9.80;99.90
54190;DHT22;40340;53.208;6.582;2022-09-25T06:23:22;9.90;99.90
54190;DHT22;40340;53.208;6.582;2022-09-25T06:25:48;9.80;99.90
54190;DHT22;40340;53.208;6.582;2022-09-25T06:28:14;9.80;99.90
54190;DHT22;40340;53.208;6.582;2022-09-25T06:30:39;9.90;99.90
54190;DHT22;40340;53.208;6.582;2022-09-25T06:33:10;9.90;99.90
54190;DHT22;40340;53.208;6.582;2022-09-25T06:38:07;10.00;99.90
54190;DHT22;40340;53.208;6.582;2022-09-25T06:40:33;10.00;99.90
54190;DHT22;40340;53.208;6.582;2022-09-25T06:43:03;10.10;99.90
54190;DHT22;40340;53.208;6.582;2022-09-25T06:45:31;10.10;99.90
54190;DHT22;40340;53.208;6.582;2022-09-25T06:48:03;10.10;99.90
54190;DHT22;40340;53.208;6.582;2022-09-25T06:50:43;10.20;99.90
54190;DHT22;40340;53.208;6.582;2022-09-25T06:53:10;10.20;99.90
54190;DHT22;40340;53.208;6.582;2022-09-25T06:55:36;10.30;99.90
54190;DHT22;40340;53.208;6.582;2022-09-25T06:58:04;10.40;99.90
54190;DHT22;40340;53.208;6.582;2022-09-25T07:00:31;10.40;99.90
54190;DHT22;40340;53.208;6.582;2022-09-25T07:02:58;10.40;99.90
54190;DHT22;40340;53.208;6.582;2022-09-25T07:05:43;10.50;99.90
54190;DHT22;40340;53.208;6.582;2022-09-25T07:08:12;10.50;99.90
54190;DHT22;40340;53.208;6.582;2022-09-25T07:10:39;10.60;99.90
54190;DHT22;40340;53.208;6.582;2022-09-25T07:13:05;10.60;99.90
54190;DHT22;40340;53.208;6.582;2022-09-25T07:15:31;10.70;99.90
54190;DHT22;40340;53.208;6.582;2022-09-25T07:17:56;10.70;99.90
54190;DHT22;40340;53.208;6.582;2022-09-25T07:20:22;10.80;99.90
54190;DHT22;40340;53.208;6.582;2022-09-25T07:22:48;10.80;99.90
54190;DHT22;40340;53.208;6.582;2022-09-25T07:25:13;10.90;99.90
54190;DHT22;40340;53.208;6.582;2022-09-25T07:27:39;11.00;99.90
54190;DHT22;40340;53.208;6.582;2022-09-25T07:30:06;11.00;99.90
54190;DHT22;40340;53.208;6.582;2022-09-25T07:32:32;11.10;99.90
54190;DHT22;40340;53.208;6.582;2022-09-25T07:34:58;11.20;99.90
54190;DHT22;40340;53.208;6.582;2022-09-25T07:37:24;11.30;99.90
54190;DHT22;40340;53.208;6.582;2022-09-25T07:39:49;11.30;99.90
54190;DHT22;40340;53.208;6.582;2022-09-25T07:42:15;11.40;99.90
54190;DHT22;40340;53.208;6.582;2022-09-25T07:44:42;11.40;99.90
54190;DHT22;40340;53.208;6.582;2022-09-25T07:47:08;11.50;99.90
54190;DHT22;40340;53.208;6.582;2022-09-25T07:49:34;11.50;99.90
54190;DHT22;40340;53.208;6.582;2022-09-25T07:52:02;11.50;99.90
54190;DHT22;40340;53.208;6.582;2022-09-25T07:54:30;11.60;99.90
54190;DHT22;40340;53.208;6.582;2022-09-25T07:56:57;11.70;99.90
54190;DHT22;40340;53.208;6.582;2022-09-25T07:59:22;11.70;99.90
54190;DHT22;40340;53.208;6.582;2022-09-25T08:01:48;11.80;99.90
54190;DHT22;40340;53.208;6.582;2022-09-25T08:04:14;11.90;99.90
54190;DHT22;40340;53.208;6.582;2022-09-25T08:06:39;12.00;99.90
54190;DHT22;40340;53.208;6.582;2022-09-25T08:09:05;12.10;99.90
54190;DHT22;40340;53.208;6.582;2022-09-25T08:11:32;12.20;99.90
54190;DHT22;40340;53.208;6.582;2022-09-25T08:13:58;12.30;99.90
54190;DHT22;40340;53.208;6.582;2022-09-25T08:16:24;12.40;99.90
54190;DHT22;40340;53.208;6.582;2022-09-25T08:18:49;12.50;99.90
54190;DHT22;40340;53.208;6.582;2022-09-25T08:21:18;12.60;99.90
54190;DHT22;40340;53.208;6.582;2022-09-25T08:23:49;12.70;99.90
54190;DHT22;40340;53.208;6.582;2022-09-25T08:26:16;12.80;99.90
54190;DHT22;40340;53.208;6.582;2022-09-25T08:28:42;12.90;99.90
54190;DHT22;40340;53.208;6.582;2022-09-25T08:31:08;13.10;99.90
54190;DHT22;40340;53.208;6.582;2022-09-25T08:33:34;13.20;99.90
54190;DHT22;40340;53.208;6.582;2022-09-25T08:36:02;13.40;99.90
54190;DHT22;40340;53.208;6.582;2022-09-25T08:38:29;13.40;99.90
54190;DHT22;40340;53.208;6.582;2022-09-25T08:41:08;13.40;99.90
54190;DHT22;40340;53.208;6.582;2022-09-25T08:44:11;13.40;99.90
54190;DHT22;40340;53.208;6.582;2022-09-25T08:46:44;13.20;99.90
54190;DHT22;40340;53.208;6.582;2022-09-25T08:49:38;13.00;99.90
54190;DHT22;40340;53.208;6.582;2022-09-25T08:52:10;12.80;99.90
54190;DHT22;40340;53.208;6.582;2022-09-25T08:54:38;12.50;99.90
54190;DHT22;40340;53.208;6.582;2022-09-25T08:59:45;12.20;99.90
54190;DHT22;40340;53.208;6.582;2022-09-25T09:02:17;12.10;99.90
54190;DHT22;40340;53.208;6.582;2022-09-25T09:04:52;12.00;99.90
54190;DHT22;40340;53.208;6.582;2022-09-25T09:07:33;11.90;99.90
54190;DHT22;40340;53.208;6.582;2022-09-25T09:16:08;11.80;99.90
54190;DHT22;40340;53.208;6.582;2022-09-25T09:18:38;11.80;99.90
54190;DHT22;40340;53.208;6.582;2022-09-25T09:35:12;12.00;99.90
54190;DHT22;40340;53.208;6.582;2022-09-25T09:37:45;12.00;99.90
54190;DHT22;40340;53.208;6.582;2022-09-25T09:45:51;12.00;99.90
54190;DHT22;40340;53.208;6.582;2022-09-25T09:50:58;12.00;99.90
54190;DHT22;40340;53.208;6.582;2022-09-25T09:53:32;12.10;99.90
54190;DHT22;40340;53.208;6.582;2022-09-25T09:56:11;12.10;99.90
54190;DHT22;40340;53.208;6.582;2022-09-25T10:01:25;12.20;99.90
54190;DHT22;40340;53.208;6.582;2022-09-25T10:04:18;12.30;99.90
54190;DHT22;40340;53.208;6.582;2022-09-25T10:07:08;12.40;99.90
54190;DHT22;40340;53.208;6.582;2022-09-25T10:09:35;12.50;99.90
54190;DHT22;40340;53.208;6.582;2022-09-25T10:12:05;12.60;99.90
54190;DHT22;40340;53.208;6.582;2022-09-25T10:14:37;12.70;99.90
54190;DHT22;40340;53.208;6.582;2022-09-25T10:17:03;12.90;99.90
54190;DHT22;40340;53.208;6.582;2022-09-25T10:19:41;12.90;99.90
54190;DHT22;40340;53.208;6.582;2022-09-25T10:22:28;13.10;99.90
54190;DHT22;40340;53.208;6.582;2022-09-25T10:24:58;13.10;99.90
54190;DHT22;40340;53.208;6.582;2022-09-25T10:27:36;13.30;99.90
54190;DHT22;40340;53.208;6.582;2022-09-25T10:32:56;13.50;99.90
54190;DHT22;40340;53.208;6.582;2022-09-25T10:35:27;13.50;99.90
54190;DHT22;40340;53.208;6.582;2022-09-25T10:37:56;13.60;99.90
54190;DHT22;40340;53.208;6.582;2022-09-25T10:40:34;13.60;99.90
54190;DHT22;40340;53.208;6.582;2022-09-25T10:43:20;13.70;99.90
54190;DHT22;40340;53.208;6.582;2022-09-25T10:45:49;13.80;99.90
54190;DHT22;40340;53.208;6.582;2022-09-25T10:48:35;13.90;99.90
54190;DHT22;40340;53.208;6.582;2022-09-25T10:51:20;14.10;99.90
54190;DHT22;40340;53.208;6.582;2022-09-25T10:53:47;14.30;99.90
54190;DHT22;40340;53.208;6.582;2022-09-25T10:56:17;14.40;99.90
54190;DHT22;40340;53.208;6.582;2022-09-25T10:58:54;14.40;99.90
54190;DHT22;40340;53.208;6.582;2022-09-25T11:01:35;14.40;99.90
54190;DHT22;40340;53.208;6.582;2022-09-25T11:04:05;14.40;99.90
54190;DHT22;40340;53.208;6.582;2022-09-25T11:06:43;14.40;99.90
54190;DHT22;40340;53.208;6.582;2022-09-25T11:09:17;14.40;99.90
54190;DHT22;40340;53.208;6.582;2022-09-25T11:11:45;14.40;99.90
54190;DHT22;40340;53.208;6.582;2022-09-25T11:14:33;14.30;99.90
54190;DHT22;40340;53.208;6.582;2022-09-25T11:17:01;14.40;99.90
54190;DHT22;40340;53.208;6.582;2022-09-25T11:19:37;14.40;99.90
54190;DHT22;40340;53.208;6.582;2022-09-25T11:22:25;14.50;99.90
54190;DHT22;40340;53.208;6.582;2022-09-25T11:27:59;14.70;99.90
54190;DHT22;40340;53.208;6.582;2022-09-25T11:30:43;14.80;99.90
54190;DHT22;40340;53.208;6.582;2022-09-25T11:33:26;15.00;99.90
54190;DHT22;40340;53.208;6.582;2022-09-25T11:35:56;15.10;99.90
54190;DHT22;40340;53.208;6.582;2022-09-25T11:41:25;15.50;99.90
54190;DHT22;40340;53.208;6.582;2022-09-25T11:46:41;15.80;99.90
54190;DHT22;40340;53.208;6.582;2022-09-25T12:03:09;16.50;99.90
54190;DHT22;40340;53.208;6.582;2022-09-25T12:22:50;16.80;99.90
54190;DHT22;40340;53.208;6.582;2022-09-25T12:25:29;16.70;99.90
54190;DHT22;40340;53.208;6.582;2022-09-25T12:28:05;16.70;99.90
54190;DHT22;40340;53.208;6.582;2022-09-25T12:33:44;16.70;99.90
54190;DHT22;40340;53.208;6.582;2022-09-25T12:36:22;16.70;99.90
54190;DHT22;40340;53.208;6.582;2022-09-25T12:42:49;16.80;99.90
54190;DHT22;40340;53.208;6.582;2022-09-25T12:45:00;16.80;99.90
54190;DHT22;40340;53.208;6.582;2022-09-25T12:53:51;17.10;99.90
54190;DHT22;40340;53.208;6.582;2022-09-25T12:56:26;17.20;99.90
54190;DHT22;40340;53.208;6.582;2022-09-25T12:59:28;17.30;99.90
54190;DHT22;40340;53.208;6.582;2022-09-25T13:02:23;17.40;99.90
54190;DHT22;40340;53.208;6.582;2022-09-25T13:05:09;17.70;99.90
54190;DHT22;40340;53.208;6.582;2022-09-25T13:07:49;17.80;99.90
54190;DHT22;40340;53.208;6.582;2022-09-25T13:13:04;18.30;99.90
54190;DHT22;40340;53.208;6.582;2022-09-25T13:15:33;18.60;99.90
54190;DHT22;40340;53.208;6.582;2022-09-25T13:18:00;19.00;99.90
54190;DHT22;40340;53.208;6.582;2022-09-25T13:28:22;20.90;99.90
54190;DHT22;40340;53.208;6.582;2022-09-25T13:31:29;21.00;99.90
54190;DHT22;40340;53.208;6.582;2022-09-25T13:38:56;21.30;99.90
54190;DHT22;40340;53.208;6.582;2022-09-25T13:41:53;21.50;99.90
54190;DHT22;40340;53.208;6.582;2022-09-25T13:50:22;20.70;99.40
54190;DHT22;40340;53.208;6.582;2022-09-25T13:52:50;20.10;99.80
54190;DHT22;40340;53.208;6.582;2022-09-25T13:55:40;19.80;99.90
54190;DHT22;40340;53.208;6.582;2022-09-25T13:58:19;19.60;99.90
54190;DHT22;40340;53.208;6.582;2022-09-25T14:03:46;19.00;99.90
54190;DHT22;40340;53.208;6.582;2022-09-25T14:06:21;18.60;99.90
54190;DHT22;40340;53.208;6.582;2022-09-25T14:08:49;18.50;99.90
54190;DHT22;40340;53.208;6.582;2022-09-25T14:11:20;18.50;99.90
54190;DHT22;40340;53.208;6.582;2022-09-25T14:13:50;18.30;99.90
54190;DHT22;40340;53.208;6.582;2022-09-25T14:16:29;18.10;99.90
54190;DHT22;40340;53.208;6.582;2022-09-25T14:18:57;17.90;99.90
54190;DHT22;40340;53.208;6.582;2022-09-25T14:21:24;17.90;99.90
54190;DHT22;40340;53.208;6.582;2022-09-25T14:24:11;17.80;99.90
54190;DHT22;40340;53.208;6.582;2022-09-25T14:26:44;17.80;99.90
54190;DHT22;40340;53.208;6.582;2022-09-25T14:29:22;17.80;99.90
54190;DHT22;40340;53.208;6.582;2022-09-25T14:32:05;17.80;99.90
54190;DHT22;40340;53.208;6.582;2022-09-25T14:34:58;17.50;99.90
54190;DHT22;40340;53.208;6.582;2022-09-25T14:40:43;17.30;99.90
54190;DHT22;40340;53.208;6.582;2022-09-25T14:46:17;17.20;99.90
54190;DHT22;40340;53.208;6.582;2022-09-25T14:51:35;17.00;99.90
54190;DHT22;40340;53.208;6.582;2022-09-25T14:54:06;16.80;99.90
54190;DHT22;40340;53.208;6.582;2022-09-25T14:56:34;16.80;99.90
54190;DHT22;40340;53.208;6.582;2022-09-25T14:59:12;16.70;99.90
54190;DHT22;40340;53.208;6.582;2022-09-25T15:01:49;16.70;99.90
54190;DHT22;40340;53.208;6.582;2022-09-25T15:04:32;16.60;99.90
54190;DHT22;40340;53.208;6.582;2022-09-25T15:07:08;16.50;99.90
54190;DHT22;40340;53.208;6.582;2022-09-25T15:09:41;16.50;99.90
54190;DHT22;40340;53.208;6.582;2022-09-25T15:17:29;16.30;99.90
54190;DHT22;40340;53.208;6.582;2022-09-25T15:19:57;16.40;99.90
54190;DHT22;40340;53.208;6.582;2022-09-25T15:22:30;16.30;99.90
54190;DHT22;40340;53.208;6.582;2022-09-25T15:25:02;16.30;99.90
54190;DHT22;40340;53.208;6.582;2022-09-25T15:27:29;16.30;99.90
54190;DHT22;40340;53.208;6.582;2022-09-25T15:29:56;16.30;99.90
54190;DHT22;40340;53.208;6.582;2022-09-25T15:32:36;16.30;99.90
54190;DHT22;40340;53.208;6.582;2022-09-25T15:35:14;16.30;99.90
54190;DHT22;40340;53.208;6.582;2022-09-25T15:37:42;16.30;99.90
54190;DHT22;40340;53.208;6.582;2022-09-25T15:40:24;16.30;99.90
54190;DHT22;40340;53.208;6.582;2022-09-25T15:42:52;16.20;99.90
54190;DHT22;40340;53.208;6.582;2022-09-25T15:45:54;16.20;99.90
54190;DHT22;40340;53.208;6.582;2022-09-25T15:48:22;16.00;99.90
54190;DHT22;40340;53.208;6.582;2022-09-25T15:50:49;16.00;99.90
54190;DHT22;40340;53.208;6.582;2022-09-25T15:53:28;15.90;99.90
54190;DHT22;40340;53.208;6.582;2022-09-25T15:56:05;15.80;99.90
54190;DHT22;40340;53.208;6.582;2022-09-25T15:58:42;15.70;99.90
54190;DHT22;40340;53.208;6.582;2022-09-25T16:01:11;15.60;99.90
54190;DHT22;40340;53.208;6.582;2022-09-25T16:03:57;15.50;99.90
54190;DHT22;40340;53.208;6.582;2022-09-25T16:06:44;15.50;99.90
54190;DHT22;40340;53.208;6.582;2022-09-25T16:09:17;15.40;99.90
54190;DHT22;40340;53.208;6.582;2022-09-25T16:11:44;15.50;99.90
54190;DHT22;40340;53.208;6.582;2022-09-25T16:14:26;15.40;99.90
54190;DHT22;40340;53.208;6.582;2022-09-25T16:16:56;15.40;99.90
54190;DHT22;40340;53.208;6.582;2022-09-25T16:21:52;15.30;99.90
54190;DHT22;40340;53.208;6.582;2022-09-25T16:24:20;15.30;99.90
54190;DHT22;40340;53.208;6.582;2022-09-25T16:26:53;15.30;99.90
54190;DHT22;40340;53.208;6.582;2022-09-25T16:29:27;15.20;99.90
54190;DHT22;40340;53.208;6.582;2022-09-25T16:32:00;15.20;99.90
54190;DHT22;40340;53.208;6.582;2022-09-25T16:34:29;15.20;99.90
54190;DHT22;40340;53.208;6.582;2022-09-25T16:36:58;15.20;99.90
54190;DHT22;40340;53.208;6.582;2022-09-25T16:41:55;15.10;99.90
54190;DHT22;40340;53.208;6.582;2022-09-25T16:49:20;15.00;99.90
54190;DHT22;40340;53.208;6.582;2022-09-25T16:51:46;15.10;99.90
54190;DHT22;40340;53.208;6.582;2022-09-25T16:54:13;15.00;99.90
54190;DHT22;40340;53.208;6.582;2022-09-25T16:56:40;15.00;99.90
54190;DHT22;40340;53.208;6.582;2022-09-25T16:59:22;15.00;99.90
54190;DHT22;40340;53.208;6.582;2022-09-25T17:01:50;14.90;99.90
54190;DHT22;40340;53.208;6.582;2022-09-25T17:04:20;14.90;99.90
54190;DHT22;40340;53.208;6.582;2022-09-25T17:06:46;14.90;99.90
54190;DHT22;40340;53.208;6.582;2022-09-25T17:09:14;14.80;99.90
54190;DHT22;40340;53.208;6.582;2022-09-25T17:11:42;14.80;99.90
54190;DHT22;40340;53.208;6.582;2022-09-25T17:14:25;14.80;99.90
54190;DHT22;40340;53.208;6.582;2022-09-25T17:16:53;14.70;99.90
54190;DHT22;40340;53.208;6.582;2022-09-25T17:19:20;14.80;99.90
54190;DHT22;40340;53.208;6.582;2022-09-25T17:21:47;14.70;99.90
54190;DHT22;40340;53.208;6.582;2022-09-25T17:24:14;14.60;99.90
54190;DHT22;40340;53.208;6.582;2022-09-25T17:26:42;14.70;99.90
54190;DHT22;40340;53.208;6.582;2022-09-25T17:29:09;14.60;99.90
54190;DHT22;40340;53.208;6.582;2022-09-25T17:31:34;14.60;99.90
54190;DHT22;40340;53.208;6.582;2022-09-25T17:34:01;14.60;99.90
54190;DHT22;40340;53.208;6.582;2022-09-25T17:36:32;14.50;99.90
54190;DHT22;40340;53.208;6.582;2022-09-25T17:38:58;14.50;99.90
54190;DHT22;40340;53.208;6.582;2022-09-25T17:41:33;14.50;99.90
54190;DHT22;40340;53.208;6.582;2022-09-25T17:44:00;14.50;99.90
54190;DHT22;40340;53.208;6.582;2022-09-25T17:46:26;14.50;99.90
54190;DHT22;40340;53.208;6.582;2022-09-25T17:48:52;14.40;99.90
54190;DHT22;40340;53.208;6.582;2022-09-25T17:51:20;14.40;99.90
54190;DHT22;40340;53.208;6.582;2022-09-25T17:53:46;14.40;99.90
54190;DHT22;40340;53.208;6.582;2022-09-25T17:56:17;14.30;99.90
54190;DHT22;40340;53.208;6.582;2022-09-25T17:58:43;14.20;99.90
54190;DHT22;40340;53.208;6.582;2022-09-25T18:01:17;14.20;99.90
54190;DHT22;40340;53.208;6.582;2022-09-25T18:04:13;14.20;99.90
54190;DHT22;40340;53.208;6.582;2022-09-25T18:06:40;14.10;99.90
54190;DHT22;40340;53.208;6.582;2022-09-25T18:09:08;14.00;99.90
54190;DHT22;40340;53.208;6.582;2022-09-25T18:11:34;14.00;99.90
54190;DHT22;40340;53.208;6.582;2022-09-25T18:13:59;13.90;99.90
54190;DHT22;40340;53.208;6.582;2022-09-25T18:16:28;13.80;99.90
54190;DHT22;40340;53.208;6.582;2022-09-25T18:18:54;13.80;99.90
54190;DHT22;40340;53.208;6.582;2022-09-25T18:21:38;13.70;99.90
54190;DHT22;40340;53.208;6.582;2022-09-25T18:24:23;13.70;99.90
54190;DHT22;40340;53.208;6.582;2022-09-25T18:26:52;13.60;99.90
54190;DHT22;40340;53.208;6.582;2022-09-25T18:29:19;13.60;99.90
54190;DHT22;40340;53.208;6.582;2022-09-25T18:31:46;13.50;99.90
54190;DHT22;40340;53.208;6.582;2022-09-25T18:34:12;13.40;99.90
54190;DHT22;40340;53.208;6.582;2022-09-25T18:36:38;13.40;99.90
54190;DHT22;40340;53.208;6.582;2022-09-25T18:39:04;13.40;99.90
54190;DHT22;40340;53.208;6.582;2022-09-25T18:41:30;13.40;99.90
54190;DHT22;40340;53.208;6.582;2022-09-25T18:43:56;13.30;99.90
54190;DHT22;40340;53.208;6.582;2022-09-25T18:46:22;13.30;99.90
54190;DHT22;40340;53.208;6.582;2022-09-25T18:48:48;13.20;99.90